createdAt,value
2023-05-12T00:00:47.034Z,0.00
2023-05-12T00:01:47.027Z,0.00
2023-05-12T00:02:47.125Z,0.00
2023-05-12T00:03:47.425Z,0.00
2023-05-12T00:04:47.045Z,0.00
2023-05-12T00:05:46.972Z,0.00
2023-05-12T00:06:46.962Z,0.00
2023-05-12T00:07:47.000Z,0.00
2023-05-12T00:08:46.961Z,0.00
2023-05-12T00:09:46.951Z,0.00
2023-05-12T00:10:46.922Z,0.00
2023-05-12T00:11:46.928Z,0.00
2023-05-12T00:12:46.899Z,0.00
2023-05-12T00:13:46.958Z,0.00
2023-05-12T00:14:46.877Z,0.00
2023-05-12T00:15:46.898Z,0.00
2023-05-12T00:16:47.024Z,0.00
2023-05-12T00:17:46.870Z,0.00
2023-05-12T00:18:46.904Z,0.00
2023-05-12T00:19:46.827Z,0.00
2023-05-12T00:20:46.800Z,0.00
2023-05-12T00:21:46.806Z,0.00
2023-05-12T00:22:46.774Z,0.00
2023-05-12T00:23:46.792Z,0.00
2023-05-12T00:24:46.752Z,0.00
2023-05-12T00:25:46.746Z,0.00
2023-05-12T00:26:46.735Z,0.00
2023-05-12T00:27:46.740Z,0.00
2023-05-12T00:28:46.750Z,0.00
2023-05-12T00:29:46.730Z,0.00
2023-05-12T00:30:46.702Z,0.00
2023-05-12T00:31:46.853Z,0.00
2023-05-12T00:32:46.677Z,0.00
2023-05-12T00:33:46.686Z,0.00
2023-05-12T00:34:46.649Z,0.00
2023-05-12T00:35:46.649Z,0.00
2023-05-12T00:36:46.627Z,0.00
2023-05-12T00:37:46.627Z,0.00
2023-05-12T00:38:46.638Z,0.00
2023-05-12T00:39:46.594Z,0.00
2023-05-12T00:40:46.586Z,0.00
2023-05-12T00:41:46.570Z,0.00
2023-05-12T00:42:46.564Z,0.00
2023-05-12T00:43:46.641Z,0.00
2023-05-12T00:44:46.542Z,0.00
2023-05-12T00:45:46.587Z,0.00
2023-05-12T00:46:46.517Z,0.00
2023-05-12T00:47:46.627Z,0.00
2023-05-12T00:48:46.535Z,0.00
2023-05-12T00:49:46.499Z,0.00
2023-05-12T00:50:46.491Z,0.00
2023-05-12T00:51:46.462Z,0.00
2023-05-12T00:52:46.463Z,0.00
2023-05-12T00:53:50.254Z,0.00
2023-05-12T00:54:46.432Z,0.00
2023-05-12T00:55:46.437Z,0.00
2023-05-12T00:56:46.423Z,0.00
2023-05-12T00:57:46.424Z,0.00
2023-05-12T00:58:46.417Z,0.00
2023-05-12T00:59:46.370Z,0.00
2023-05-12T01:00:46.391Z,0.00
2023-05-12T01:01:46.376Z,0.00
2023-05-12T01:02:46.448Z,0.00
2023-05-12T01:03:46.419Z,0.00
2023-05-12T01:04:46.362Z,0.00
2023-05-12T01:05:46.328Z,0.00
2023-05-12T01:06:46.296Z,0.00
2023-05-12T01:07:46.299Z,0.00
2023-05-12T01:08:46.295Z,0.00
2023-05-12T01:09:46.311Z,0.00
2023-05-12T01:10:46.271Z,0.00
2023-05-12T01:11:46.251Z,0.00
2023-05-12T01:12:46.246Z,0.00
2023-05-12T01:13:46.216Z,0.00
2023-05-12T01:14:46.210Z,0.00
2023-05-12T01:15:46.221Z,0.00
2023-05-12T01:16:46.214Z,0.00
2023-05-12T01:17:46.254Z,0.00
2023-05-12T01:18:46.208Z,0.00
2023-05-12T01:19:46.149Z,0.00
2023-05-12T01:20:46.157Z,0.00
2023-05-12T01:21:46.131Z,0.00
2023-05-12T01:22:46.124Z,0.00
2023-05-12T01:23:46.122Z,0.00
2023-05-12T01:24:46.105Z,0.00
2023-05-12T01:25:46.097Z,0.00
2023-05-12T01:26:46.081Z,0.00
2023-05-12T01:27:46.073Z,0.00
2023-05-12T01:28:46.080Z,0.00
2023-05-12T01:29:46.051Z,0.00
2023-05-12T01:30:46.113Z,0.00
2023-05-12T01:31:46.071Z,0.00
2023-05-12T01:32:46.159Z,0.00
2023-05-12T01:33:46.050Z,0.00
2023-05-12T01:34:45.987Z,0.00
2023-05-12T01:35:45.986Z,0.00
2023-05-12T01:36:45.976Z,0.00
2023-05-12T01:37:45.965Z,0.00
2023-05-12T01:38:45.973Z,0.00
2023-05-12T01:39:45.938Z,0.00
2023-05-12T01:40:45.917Z,0.00
2023-05-12T01:41:45.917Z,0.00
2023-05-12T01:42:45.909Z,0.00
2023-05-12T01:43:45.926Z,0.00
2023-05-12T01:44:45.892Z,0.00
2023-05-12T01:45:45.869Z,0.00
2023-05-12T01:46:45.898Z,0.00
2023-05-12T01:47:45.910Z,0.00
2023-05-12T01:48:45.856Z,0.00
2023-05-12T01:49:45.854Z,0.00
2023-05-12T01:50:45.807Z,0.00
2023-05-12T01:51:45.807Z,0.00
2023-05-12T01:52:45.791Z,0.00
2023-05-12T01:53:45.805Z,0.00
2023-05-12T01:54:45.765Z,0.00
2023-05-12T01:55:45.747Z,0.00
2023-05-12T01:56:45.754Z,0.00
2023-05-12T01:57:45.751Z,0.00
2023-05-12T01:58:45.811Z,0.00
2023-05-12T01:59:45.702Z,0.00
2023-05-12T02:00:45.711Z,0.00
2023-05-12T02:01:45.683Z,0.00
2023-05-12T02:02:45.761Z,0.00
2023-05-12T02:03:45.761Z,0.00
2023-05-12T02:04:45.647Z,0.00
2023-05-12T02:05:46.534Z,0.00
2023-05-12T02:06:45.641Z,0.00
2023-05-12T02:07:45.606Z,0.00
2023-05-12T02:08:45.648Z,0.00
2023-05-12T02:09:45.589Z,0.00
2023-05-12T02:10:45.600Z,0.00
2023-05-12T02:11:45.566Z,0.00
2023-05-12T02:12:45.592Z,0.00
2023-05-12T02:13:45.555Z,0.00
2023-05-12T02:14:45.559Z,0.00
2023-05-12T02:15:45.519Z,0.00
2023-05-12T02:16:45.568Z,0.00
2023-05-12T02:17:45.542Z,0.00
2023-05-12T02:18:45.575Z,0.00
2023-05-12T02:19:45.489Z,0.00
2023-05-12T02:20:45.474Z,0.00
2023-05-12T02:21:45.583Z,0.00
2023-05-12T02:22:45.460Z,0.00
2023-05-12T02:23:45.481Z,0.00
2023-05-12T02:24:45.435Z,0.00
2023-05-12T02:25:45.435Z,0.00
2023-05-12T02:26:45.482Z,0.00
2023-05-12T02:27:45.394Z,0.00
2023-05-12T02:28:45.389Z,0.00
2023-05-12T02:29:45.409Z,0.00
2023-05-12T02:30:45.397Z,0.00
2023-05-12T02:31:45.385Z,0.00
2023-05-12T02:32:45.363Z,0.00
2023-05-12T02:33:45.339Z,0.00
2023-05-12T02:34:45.330Z,0.00
2023-05-12T02:35:45.363Z,0.00
2023-05-12T02:36:45.336Z,0.00
2023-05-12T02:37:45.315Z,0.00
2023-05-12T02:38:45.284Z,0.00
2023-05-12T02:39:45.257Z,0.00
2023-05-12T02:40:45.251Z,0.00
2023-05-12T02:41:45.250Z,0.00
2023-05-12T02:42:45.227Z,0.00
2023-05-12T02:43:45.249Z,0.00
2023-05-12T02:44:45.231Z,0.00
2023-05-12T02:45:45.211Z,0.00
2023-05-12T02:46:45.194Z,0.00
2023-05-12T02:47:45.242Z,0.00
2023-05-12T02:48:45.204Z,0.00
2023-05-12T02:49:45.160Z,0.00
2023-05-12T02:50:45.157Z,0.00
2023-05-12T02:51:45.138Z,0.00
2023-05-12T02:52:45.132Z,0.00
2023-05-12T02:53:45.155Z,0.00
2023-05-12T02:54:45.109Z,0.00
2023-05-12T02:55:45.086Z,0.00
2023-05-12T02:56:45.075Z,0.00
2023-05-12T02:57:45.071Z,0.00
2023-05-12T02:58:45.069Z,0.00
2023-05-12T02:59:45.070Z,0.00
2023-05-12T03:00:45.067Z,0.00
2023-05-12T03:01:45.092Z,0.00
2023-05-12T03:02:45.196Z,0.00
2023-05-12T03:03:45.197Z,0.00
2023-05-12T03:04:45.004Z,0.00
2023-05-12T03:05:44.989Z,0.00
2023-05-12T03:06:44.969Z,0.00
2023-05-12T03:07:44.951Z,0.00
2023-05-12T03:08:44.958Z,0.00
2023-05-12T03:09:44.965Z,0.00
2023-05-12T03:10:44.934Z,0.00
2023-05-12T03:11:44.920Z,0.00
2023-05-12T03:12:44.914Z,0.00
2023-05-12T03:13:44.915Z,0.00
2023-05-12T03:14:44.877Z,0.00
2023-05-12T03:15:44.886Z,0.00
2023-05-12T03:16:44.861Z,0.00
2023-05-12T03:17:44.900Z,0.00
2023-05-12T03:18:44.898Z,0.00
2023-05-12T03:19:44.829Z,0.00
2023-05-12T03:20:44.829Z,0.00
2023-05-12T03:21:44.811Z,0.00
2023-05-12T03:22:44.792Z,0.00
2023-05-12T03:23:44.833Z,0.00
2023-05-12T03:24:44.792Z,0.00
2023-05-12T03:25:44.774Z,0.00
2023-05-12T03:26:44.746Z,0.00
2023-05-12T03:27:44.730Z,0.00
2023-05-12T03:28:44.743Z,0.00
2023-05-12T03:29:44.717Z,0.00
2023-05-12T03:30:44.720Z,0.00
2023-05-12T03:31:44.800Z,0.00
2023-05-12T03:32:44.716Z,4.00
2023-05-12T03:33:44.668Z,4.00
2023-05-12T03:34:44.709Z,4.00
2023-05-12T03:35:44.651Z,4.00
2023-05-12T03:36:44.661Z,0.00
2023-05-12T03:37:44.638Z,0.00
2023-05-12T03:38:44.640Z,4.00
2023-05-12T03:39:44.611Z,4.00
2023-05-12T03:40:44.599Z,4.00
2023-05-12T03:41:44.606Z,4.00
2023-05-12T03:42:44.566Z,4.00
2023-05-12T03:43:44.590Z,8.00
2023-05-12T03:44:44.560Z,4.00
2023-05-12T03:45:44.530Z,8.00
2023-05-12T03:46:44.569Z,8.00
2023-05-12T03:47:44.673Z,8.00
2023-05-12T03:48:44.530Z,12.00
2023-05-12T03:49:44.495Z,12.00
2023-05-12T03:50:44.479Z,12.00
2023-05-12T03:51:44.468Z,16.00
2023-05-12T03:52:44.456Z,20.00
2023-05-12T03:53:44.440Z,24.00
2023-05-12T03:54:44.494Z,28.00
2023-05-12T03:55:44.433Z,32.00
2023-05-12T03:56:44.428Z,32.00
2023-05-12T03:57:44.419Z,36.00
2023-05-12T03:58:44.390Z,36.00
2023-05-12T03:59:44.394Z,40.00
2023-05-12T04:00:44.381Z,40.00
2023-05-12T04:01:44.396Z,48.00
2023-05-12T04:02:44.450Z,48.00
2023-05-12T04:03:44.463Z,52.00
2023-05-12T04:04:44.316Z,56.00
2023-05-12T04:05:44.332Z,64.00
2023-05-12T04:06:44.300Z,64.00
2023-05-12T04:07:44.304Z,72.00
2023-05-12T04:08:44.296Z,72.00
2023-05-12T04:09:44.280Z,76.00
2023-05-12T04:10:44.252Z,80.00
2023-05-12T04:11:44.235Z,80.00
2023-05-12T04:12:44.227Z,92.00
2023-05-12T04:13:44.291Z,96.00
2023-05-12T04:14:44.204Z,100.00
2023-05-12T04:15:44.195Z,104.00
2023-05-12T04:16:44.230Z,108.00
2023-05-12T04:17:44.263Z,112.00
2023-05-12T04:18:44.241Z,116.00
2023-05-12T04:19:44.150Z,120.00
2023-05-12T04:20:44.138Z,120.00
2023-05-12T04:21:44.124Z,124.00
2023-05-12T04:22:44.118Z,128.00
2023-05-12T04:23:44.133Z,132.00
2023-05-12T04:24:44.094Z,136.00
2023-05-12T04:25:44.080Z,148.00
2023-05-12T04:26:44.080Z,144.00
2023-05-12T04:27:44.069Z,140.00
2023-05-12T04:28:44.075Z,140.00
2023-05-12T04:29:44.067Z,140.00
2023-05-12T04:30:44.023Z,140.00
2023-05-12T04:31:44.093Z,152.00
2023-05-12T04:32:44.028Z,172.00
2023-05-12T04:33:44.949Z,180.00
2023-05-12T04:34:43.992Z,188.00
2023-05-12T04:35:43.990Z,192.00
2023-05-12T04:36:43.969Z,200.00
2023-05-12T04:37:44.042Z,188.00
2023-05-12T04:38:43.968Z,192.00
2023-05-12T04:39:43.923Z,188.00
2023-05-12T04:40:43.928Z,188.00
2023-05-12T04:41:43.910Z,196.00
2023-05-12T04:42:43.910Z,212.00
2023-05-12T04:44:43.882Z,260.00
2023-05-12T04:45:44.004Z,276.00
2023-05-12T04:46:43.930Z,268.00
2023-05-12T04:47:43.897Z,276.00
2023-05-12T04:48:43.852Z,268.00
2023-05-12T04:49:43.834Z,296.00
2023-05-12T04:50:43.801Z,320.00
2023-05-12T04:51:43.807Z,376.00
2023-05-12T04:52:43.781Z,408.00
2023-05-12T04:53:43.772Z,460.00
2023-05-12T04:54:43.809Z,504.00
2023-05-12T04:55:43.759Z,548.00
2023-05-12T04:56:43.733Z,580.00
2023-05-12T04:57:43.726Z,592.00
2023-05-12T04:58:43.728Z,564.00
2023-05-12T04:59:43.733Z,536.00
2023-05-12T05:00:43.687Z,528.00
2023-05-12T05:01:43.987Z,516.00
2023-05-12T05:02:43.777Z,484.00
2023-05-12T05:03:43.912Z,464.00
2023-05-12T05:04:43.672Z,472.00
2023-05-12T05:05:43.634Z,468.00
2023-05-12T05:06:43.631Z,452.00
2023-05-12T05:07:43.618Z,408.00
2023-05-12T05:08:43.609Z,412.00
2023-05-12T05:09:43.606Z,376.00
2023-05-12T05:10:43.582Z,408.00
2023-05-12T05:11:43.583Z,432.00
2023-05-12T05:12:43.554Z,384.00
2023-05-12T05:13:43.562Z,464.00
2023-05-12T05:14:43.576Z,456.00
2023-05-12T05:15:43.593Z,488.00
2023-05-12T05:16:43.520Z,488.00
2023-05-12T05:17:43.589Z,480.00
2023-05-12T05:18:43.556Z,520.00
2023-05-12T05:19:55.204Z,500.00
2023-05-12T05:20:45.626Z,504.00
2023-05-12T05:21:44.453Z,488.00
2023-05-12T05:22:43.460Z,488.00
2023-05-12T05:23:43.430Z,456.00
2023-05-12T05:24:43.452Z,504.00
2023-05-12T05:25:43.427Z,536.00
2023-05-12T05:26:43.399Z,572.00
2023-05-12T05:27:43.399Z,608.00
2023-05-12T05:28:43.386Z,604.00
2023-05-12T05:29:43.367Z,572.00
2023-05-12T05:30:43.374Z,584.00
2023-05-12T05:31:43.458Z,576.00
2023-05-12T05:32:43.423Z,600.00
2023-05-12T05:33:43.367Z,580.00
2023-05-12T05:34:43.350Z,600.00
2023-05-12T05:35:43.355Z,580.00
2023-05-12T05:36:43.282Z,636.00
2023-05-12T05:37:43.277Z,632.00
2023-05-12T05:38:43.273Z,616.00
2023-05-12T05:39:43.265Z,624.00
2023-05-12T05:40:52.987Z,624.00
2023-05-12T05:41:44.232Z,628.00
2023-05-12T05:42:43.216Z,612.00
2023-05-12T05:43:43.220Z,616.00
2023-05-12T05:44:43.209Z,596.00
2023-05-12T05:45:43.183Z,556.00
2023-05-12T05:46:43.248Z,556.00
2023-05-12T05:47:43.219Z,560.00
2023-05-12T05:48:43.148Z,656.00
2023-05-12T05:49:43.186Z,636.00
2023-05-12T05:50:43.148Z,648.00
2023-05-12T05:51:43.128Z,620.00
2023-05-12T05:52:43.108Z,588.00
2023-05-12T05:53:43.093Z,560.00
2023-05-12T05:54:43.083Z,564.00
2023-05-12T05:55:43.132Z,600.00
2023-05-12T05:56:43.074Z,508.00
2023-05-12T05:57:43.046Z,564.00
2023-05-12T05:58:43.038Z,656.00
2023-05-12T05:59:43.035Z,608.00
2023-05-12T06:00:43.038Z,664.00
2023-05-12T06:01:43.030Z,672.00
2023-05-12T06:02:43.085Z,748.00
2023-05-12T06:03:43.053Z,900.00
2023-05-12T06:04:42.973Z,884.00
2023-05-12T06:05:43.114Z,820.00
2023-05-12T06:06:42.945Z,828.00
2023-05-12T06:07:42.949Z,828.00
2023-05-12T06:08:42.932Z,772.00
2023-05-12T06:09:42.909Z,732.00
2023-05-12T06:10:42.929Z,728.00
2023-05-12T06:11:42.911Z,764.00
2023-05-12T06:12:42.893Z,724.00
2023-05-12T06:13:42.882Z,736.00
2023-05-12T06:14:42.862Z,648.00
2023-05-12T06:15:42.854Z,688.00
2023-05-12T06:16:42.879Z,688.00
2023-05-12T06:17:42.854Z,692.00
2023-05-12T06:18:42.852Z,668.00
2023-05-12T06:19:42.801Z,692.00
2023-05-12T06:20:42.796Z,692.00
2023-05-12T06:21:42.815Z,728.00
2023-05-12T06:22:42.789Z,848.00
2023-05-12T06:23:42.751Z,932.00
2023-05-12T06:24:42.752Z,936.00
2023-05-12T06:25:42.742Z,1048.00
2023-05-12T06:26:42.718Z,1224.00
2023-05-12T06:27:42.705Z,1460.00
2023-05-12T06:28:42.722Z,1640.00
2023-05-12T06:29:42.685Z,1824.00
2023-05-12T06:30:42.697Z,1948.00
2023-05-12T06:31:42.701Z,1900.00
2023-05-12T06:32:42.711Z,1920.00
2023-05-12T06:33:42.659Z,2060.00
2023-05-12T06:34:42.628Z,1956.00
2023-05-12T06:35:42.644Z,1928.00
2023-05-12T06:36:42.621Z,1972.00
2023-05-12T06:37:42.624Z,2308.00
2023-05-12T06:38:42.583Z,2216.00
2023-05-12T06:39:42.576Z,2036.00
2023-05-12T06:40:42.577Z,2368.00
2023-05-12T06:41:42.576Z,1816.00
2023-05-12T06:42:42.546Z,1780.00
2023-05-12T06:43:42.532Z,1740.00
2023-05-12T06:44:42.733Z,1604.00
2023-05-12T06:45:42.533Z,1648.00
2023-05-12T06:46:42.666Z,1788.00
2023-05-12T06:47:42.524Z,1932.00
2023-05-12T06:48:42.480Z,1940.00
2023-05-12T06:49:42.464Z,2044.00
2023-05-12T06:50:42.452Z,2240.00
2023-05-12T06:51:42.479Z,2552.00
2023-05-12T06:52:42.440Z,2948.00
2023-05-12T06:53:42.461Z,3096.00
2023-05-12T06:54:42.411Z,3004.00
2023-05-12T06:55:42.402Z,2948.00
2023-05-12T06:56:42.398Z,3228.00
2023-05-12T06:57:42.377Z,3032.00
2023-05-12T06:58:42.380Z,3068.00
2023-05-12T06:59:42.355Z,3572.00
2023-05-12T07:00:42.338Z,3056.00
2023-05-12T07:01:42.412Z,2344.00
2023-05-12T07:02:42.349Z,3228.00
2023-05-12T07:03:42.354Z,3292.00
2023-05-12T07:04:42.294Z,3916.00
2023-05-12T07:05:42.393Z,4868.00
2023-05-12T07:06:42.292Z,4376.00
2023-05-12T07:07:42.273Z,5140.00
2023-05-12T07:08:42.245Z,7644.00
2023-05-12T07:09:42.283Z,6652.00
2023-05-12T07:10:42.226Z,3548.00
2023-05-12T07:11:42.227Z,6684.00
2023-05-12T07:12:42.204Z,4836.00
2023-05-12T07:13:42.194Z,4912.00
2023-05-12T07:14:42.174Z,4120.00
2023-05-12T07:15:42.272Z,2896.00
2023-05-12T07:16:42.176Z,2568.00
2023-05-12T07:17:42.197Z,2436.00
2023-05-12T07:18:42.197Z,2104.00
2023-05-12T07:19:42.138Z,2160.00
2023-05-12T07:20:42.110Z,2044.00
2023-05-12T07:21:42.138Z,2104.00
2023-05-12T07:22:42.100Z,2308.00
2023-05-12T07:23:42.094Z,1780.00
2023-05-12T07:24:42.088Z,1568.00
2023-05-12T07:25:42.136Z,1772.00
2023-05-12T07:26:42.136Z,2044.00
2023-05-12T07:27:42.052Z,2080.00
2023-05-12T07:28:42.030Z,2148.00
2023-05-12T07:29:42.017Z,1884.00
2023-05-12T07:30:42.004Z,1916.00
2023-05-12T07:31:42.067Z,1948.00
2023-05-12T07:32:42.050Z,2028.00
2023-05-12T07:33:41.970Z,1884.00
2023-05-12T07:34:41.971Z,1840.00
2023-05-12T07:35:41.956Z,1792.00
2023-05-12T07:36:41.931Z,1780.00
2023-05-12T07:37:41.957Z,1676.00
2023-05-12T07:38:42.193Z,1552.00
2023-05-12T07:39:41.909Z,1632.00
2023-05-12T07:40:41.885Z,1604.00
2023-05-12T07:41:41.905Z,1604.00
2023-05-12T07:42:41.883Z,1632.00
2023-05-12T07:43:41.861Z,1660.00
2023-05-12T07:44:41.847Z,1484.00
2023-05-12T07:45:41.850Z,1756.00
2023-05-12T07:46:41.866Z,1764.00
2023-05-12T07:47:41.886Z,1696.00
2023-05-12T07:48:41.816Z,1708.00
2023-05-12T07:49:41.813Z,1888.00
2023-05-12T07:50:41.830Z,1924.00
2023-05-12T07:51:41.774Z,1908.00
2023-05-12T07:52:41.795Z,1884.00
2023-05-12T07:53:41.761Z,1816.00
2023-05-12T07:54:41.736Z,1848.00
2023-05-12T07:55:41.747Z,1884.00
2023-05-12T07:56:41.727Z,1844.00
2023-05-12T07:57:41.860Z,2100.00
2023-05-12T07:58:41.695Z,2212.00
2023-05-12T07:59:41.695Z,2568.00
2023-05-12T08:00:41.673Z,2960.00
2023-05-12T08:01:41.765Z,2996.00
2023-05-12T08:02:41.796Z,3120.00
2023-05-12T08:03:41.777Z,3452.00
2023-05-12T08:04:43.231Z,4048.00
2023-05-12T08:05:41.617Z,4148.00
2023-05-12T08:06:41.613Z,4636.00
2023-05-12T08:07:41.626Z,4456.00
2023-05-12T08:08:41.624Z,4600.00
2023-05-12T08:09:41.587Z,4660.00
2023-05-12T08:10:41.572Z,5204.00
2023-05-12T08:11:43.231Z,5556.00
2023-05-12T08:12:41.570Z,6500.00
2023-05-12T08:13:41.596Z,7352.00
2023-05-12T08:14:41.512Z,5296.00
2023-05-12T08:15:41.512Z,5140.00
2023-05-12T08:16:41.516Z,4496.00
2023-05-12T08:17:41.564Z,4440.00
2023-05-12T08:18:41.533Z,7792.00
2023-05-12T08:19:41.979Z,4396.00
2023-05-12T08:20:41.466Z,3496.00
2023-05-12T08:21:41.447Z,3084.00
2023-05-12T08:22:41.436Z,2856.00
2023-05-12T08:23:41.428Z,3032.00
2023-05-12T08:24:41.444Z,2920.00
2023-05-12T08:25:41.390Z,2492.00
2023-05-12T08:26:41.392Z,2544.00
2023-05-12T08:27:41.404Z,2408.00
2023-05-12T08:28:41.428Z,2464.00
2023-05-12T08:29:41.424Z,2748.00
2023-05-12T08:30:41.367Z,2456.00
2023-05-12T08:31:41.352Z,2884.00
2023-05-12T08:32:41.340Z,2740.00
2023-05-12T08:33:41.316Z,2640.00
2023-05-12T08:34:41.351Z,2312.00
2023-05-12T08:35:41.283Z,2748.00
2023-05-12T08:36:41.270Z,2956.00
2023-05-12T08:37:41.270Z,3504.00
2023-05-12T08:38:41.273Z,5192.00
2023-05-12T08:39:41.239Z,4404.00
2023-05-12T08:40:41.264Z,4400.00
2023-05-12T08:41:41.215Z,6296.00
2023-05-12T08:42:41.199Z,6704.00
2023-05-12T08:43:41.201Z,7280.00
2023-05-12T08:44:41.171Z,6944.00
2023-05-12T08:45:41.228Z,6376.00
2023-05-12T08:46:41.239Z,6132.00
2023-05-12T08:47:41.189Z,5568.00
2023-05-12T08:48:41.129Z,5936.00
2023-05-12T08:49:41.164Z,4428.00
2023-05-12T08:50:41.105Z,5180.00
2023-05-12T08:51:41.096Z,9048.00
2023-05-12T08:52:41.102Z,24352.00
2023-05-12T08:53:41.092Z,3416.00
2023-05-12T08:54:52.335Z,9700.00
2023-05-12T08:55:46.112Z,3920.00
2023-05-12T08:57:41.032Z,12572.00
2023-05-12T08:58:42.369Z,11904.00
2023-05-12T08:59:41.032Z,3900.00
2023-05-12T09:00:41.052Z,5496.00
2023-05-12T09:01:41.120Z,14524.00
2023-05-12T09:02:52.204Z,13828.00
2023-05-12T09:03:41.984Z,13556.00
2023-05-12T09:04:40.971Z,14612.00
2023-05-12T09:05:41.152Z,30080.00
2023-05-12T09:06:40.931Z,21056.00
2023-05-12T09:07:40.916Z,24928.00
2023-05-12T09:08:40.902Z,17984.00
2023-05-12T09:09:40.924Z,28288.00
2023-05-12T09:10:40.899Z,23840.00
2023-05-12T09:11:40.889Z,21984.00
2023-05-12T09:12:40.880Z,23360.00
2023-05-12T09:13:40.855Z,13596.00
2023-05-12T09:14:40.857Z,8396.00
2023-05-12T09:15:40.841Z,6920.00
2023-05-12T09:16:40.906Z,4344.00
2023-05-12T09:17:40.949Z,6900.00
2023-05-12T09:18:40.843Z,6484.00
2023-05-12T09:19:40.798Z,6432.00
2023-05-12T09:20:40.774Z,6264.00
2023-05-12T09:21:40.761Z,4888.00
2023-05-12T09:22:40.798Z,7392.00
2023-05-12T09:23:40.773Z,6788.00
2023-05-12T09:24:40.856Z,4592.00
2023-05-12T09:25:40.799Z,3692.00
2023-05-12T09:26:40.790Z,3440.00
2023-05-12T09:27:40.694Z,3776.00
2023-05-12T09:28:40.874Z,3888.00
2023-05-12T09:29:51.582Z,2284.00
2023-05-12T09:30:41.669Z,2116.00
2023-05-12T09:31:40.847Z,2724.00
2023-05-12T09:32:40.663Z,2220.00
2023-05-12T09:33:40.698Z,2252.00
2023-05-12T09:34:40.625Z,2020.00
2023-05-12T09:35:40.605Z,1828.00
2023-05-12T09:36:40.618Z,2328.00
2023-05-12T09:37:40.607Z,2564.00
2023-05-12T09:38:40.608Z,3040.00
2023-05-12T09:39:40.593Z,3340.00
2023-05-12T09:40:40.572Z,3828.00
2023-05-12T09:41:40.547Z,5088.00
2023-05-12T09:42:40.543Z,5648.00
2023-05-12T09:43:40.517Z,4744.00
2023-05-12T09:44:40.537Z,4504.00
2023-05-12T09:45:40.544Z,4816.00
2023-05-12T09:46:40.515Z,8432.00
2023-05-12T09:47:40.504Z,4472.00
2023-05-12T09:48:40.481Z,3116.00
2023-05-12T09:49:40.579Z,2840.00
2023-05-12T09:50:47.157Z,2488.00
2023-05-12T09:51:41.464Z,2632.00
2023-05-12T09:52:40.426Z,2860.00
2023-05-12T09:53:40.421Z,2860.00
2023-05-12T09:54:40.411Z,2780.00
2023-05-12T09:55:40.433Z,2824.00
2023-05-12T09:56:40.395Z,2672.00
2023-05-12T09:57:40.366Z,3208.00
2023-05-12T09:58:40.354Z,3560.00
2023-05-12T09:59:43.007Z,4168.00
2023-05-12T10:00:52.508Z,5164.00
2023-05-12T10:01:41.370Z,5780.00
2023-05-12T10:02:40.363Z,8332.00
2023-05-12T10:03:40.302Z,8340.00
2023-05-12T10:04:40.334Z,15232.00
2023-05-12T10:05:40.366Z,23808.00
2023-05-12T10:06:40.280Z,23104.00
2023-05-12T10:07:40.266Z,44800.00
2023-05-12T10:08:40.245Z,27328.00
2023-05-12T10:09:40.238Z,13684.00
2023-05-12T10:10:40.229Z,28224.00
2023-05-12T10:11:41.159Z,19232.00
2023-05-12T10:12:40.211Z,57472.00
2023-05-12T10:13:40.194Z,41728.00
2023-05-12T10:14:40.196Z,13232.00
2023-05-12T10:15:40.179Z,36640.00
2023-05-12T10:16:40.225Z,17760.00
2023-05-12T10:17:40.175Z,19744.00
2023-05-12T10:18:40.167Z,13992.00
2023-05-12T10:19:40.119Z,6940.00
2023-05-12T10:20:40.112Z,5780.00
2023-05-12T10:21:40.214Z,5584.00
2023-05-12T10:22:40.083Z,7704.00
2023-05-12T10:23:40.096Z,10340.00
2023-05-12T10:24:40.059Z,23328.00
2023-05-12T10:25:40.060Z,31392.00
2023-05-12T10:26:40.098Z,49024.00
2023-05-12T10:27:40.029Z,35584.00
2023-05-12T10:28:40.013Z,5232.00
2023-05-12T10:29:40.016Z,6792.00
2023-05-12T10:30:39.997Z,6880.00
2023-05-12T10:31:40.197Z,7608.00
2023-05-12T10:32:40.000Z,9164.00
2023-05-12T10:33:39.970Z,7444.00
2023-05-12T10:34:39.955Z,18304.00
2023-05-12T10:35:39.980Z,28032.00
2023-05-12T10:36:39.973Z,56064.00
2023-05-12T10:37:40.243Z,74880.00
2023-05-12T10:38:39.927Z,73024.00
2023-05-12T10:39:39.898Z,10496.00
2023-05-12T10:40:39.897Z,4792.00
2023-05-12T10:41:39.880Z,4020.00
2023-05-12T10:42:39.884Z,6580.00
2023-05-12T10:43:39.854Z,10632.00
2023-05-12T10:44:39.851Z,7888.00
2023-05-12T10:45:39.822Z,7124.00
2023-05-12T10:46:39.849Z,5560.00
2023-05-12T10:47:39.833Z,5088.00
2023-05-12T10:48:39.811Z,5688.00
2023-05-12T10:49:39.808Z,5820.00
2023-05-12T10:50:39.786Z,6308.00
2023-05-12T10:51:39.788Z,6084.00
2023-05-12T10:52:39.766Z,7112.00
2023-05-12T10:53:49.242Z,3884.00
2023-05-12T10:54:40.735Z,3152.00
2023-05-12T10:55:39.824Z,2664.00
2023-05-12T10:56:40.026Z,3484.00
2023-05-12T10:57:40.158Z,3296.00
2023-05-12T10:58:40.194Z,3104.00
2023-05-12T10:59:40.197Z,3540.00
2023-05-12T11:00:40.272Z,2552.00
2023-05-12T11:01:40.222Z,2372.00
2023-05-12T11:02:40.143Z,1956.00
2023-05-12T11:03:39.935Z,1516.00
2023-05-12T11:04:39.818Z,1316.00
2023-05-12T11:05:40.304Z,1304.00
2023-05-12T11:06:40.802Z,1344.00
2023-05-12T11:07:39.893Z,1888.00
2023-05-12T11:08:40.109Z,2160.00
2023-05-12T11:09:48.005Z,2236.00
2023-05-12T11:10:40.616Z,2044.00
2023-05-12T11:11:40.467Z,1680.00
2023-05-12T11:12:39.563Z,1960.00
2023-05-12T11:13:39.546Z,2224.00
2023-05-12T11:14:39.513Z,2988.00
2023-05-12T11:15:39.509Z,4212.00
2023-05-12T11:16:39.612Z,4352.00
2023-05-12T11:17:39.588Z,3940.00
2023-05-12T11:18:39.525Z,4792.00
2023-05-12T11:19:39.473Z,6136.00
2023-05-12T11:20:39.454Z,5592.00
2023-05-12T11:21:39.436Z,4396.00
2023-05-12T11:22:39.437Z,4228.00
2023-05-12T11:23:39.428Z,3916.00
2023-05-12T11:24:39.436Z,4172.00
2023-05-12T11:25:40.622Z,4584.00
2023-05-12T11:26:39.405Z,4636.00
2023-05-12T11:27:39.404Z,4496.00
2023-05-12T11:28:39.383Z,4628.00
2023-05-12T11:29:39.341Z,4536.00
2023-05-12T11:30:39.344Z,4180.00
2023-05-12T11:31:39.360Z,4040.00
2023-05-12T11:32:39.393Z,4220.00
2023-05-12T11:33:39.347Z,4616.00
2023-05-12T11:34:39.290Z,4588.00
2023-05-12T11:35:39.273Z,4676.00
2023-05-12T11:36:39.292Z,4952.00
2023-05-12T11:37:39.274Z,5344.00
2023-05-12T11:38:39.279Z,5356.00
2023-05-12T11:39:39.242Z,5212.00
2023-05-12T11:40:39.224Z,5720.00
2023-05-12T11:41:39.322Z,6000.00
2023-05-12T11:42:39.217Z,5976.00
2023-05-12T11:43:39.222Z,6028.00
2023-05-12T11:44:39.189Z,6232.00
2023-05-12T11:45:39.213Z,5684.00
2023-05-12T11:46:39.195Z,5832.00
2023-05-12T11:47:39.197Z,5736.00
2023-05-12T11:48:39.157Z,6600.00
2023-05-12T11:49:39.132Z,6520.00
2023-05-12T11:50:39.167Z,6644.00
2023-05-12T11:51:39.102Z,6952.00
2023-05-12T11:52:39.089Z,6600.00
2023-05-12T11:53:39.111Z,5964.00
2023-05-12T11:54:39.096Z,6012.00
2023-05-12T11:55:39.052Z,6000.00
2023-05-12T11:56:39.074Z,6360.00
2023-05-12T11:57:39.105Z,5896.00
2023-05-12T11:58:39.048Z,5872.00
2023-05-12T11:59:39.041Z,6116.00
2023-05-12T12:00:39.024Z,5724.00
2023-05-12T12:01:38.987Z,5772.00
2023-05-12T12:02:39.105Z,5728.00
2023-05-12T12:03:39.132Z,5712.00
2023-05-12T12:04:39.093Z,5256.00
2023-05-12T12:05:38.956Z,4908.00
2023-05-12T12:06:38.948Z,4704.00
2023-05-12T12:07:39.026Z,4392.00
2023-05-12T12:08:38.969Z,3892.00
2023-05-12T12:09:38.912Z,3736.00
2023-05-12T12:10:38.888Z,3456.00
2023-05-12T12:11:38.884Z,3616.00
2023-05-12T12:12:38.866Z,4268.00
2023-05-12T12:13:38.996Z,4336.00
2023-05-12T12:14:38.845Z,4796.00
2023-05-12T12:15:38.841Z,4588.00
2023-05-12T12:16:38.922Z,4832.00
2023-05-12T12:17:38.955Z,4932.00
2023-05-12T12:18:38.854Z,4988.00
2023-05-12T12:19:38.797Z,4608.00
2023-05-12T12:20:38.792Z,3784.00
2023-05-12T12:21:38.761Z,3924.00
2023-05-12T12:22:38.775Z,3740.00
2023-05-12T12:23:47.683Z,3544.00
2023-05-12T12:24:39.752Z,3776.00
2023-05-12T12:25:38.734Z,3460.00
2023-05-12T12:26:39.518Z,3496.00
2023-05-12T12:27:38.710Z,3164.00
2023-05-12T12:28:38.690Z,2720.00
2023-05-12T12:29:38.735Z,2596.00
2023-05-12T12:30:38.687Z,2252.00
2023-05-12T12:31:38.730Z,2424.00
2023-05-12T12:32:38.706Z,2620.00